createdAt,value
2022-09-28T00:01:21.414Z,15.10
2022-09-28T00:03:50.544Z,15.00
2022-09-28T00:06:22.105Z,15.00
2022-09-28T00:08:52.130Z,15.00
2022-09-28T00:11:20.992Z,15.00
2022-09-28T00:13:53.605Z,15.00
2022-09-28T00:16:28.233Z,15.00
2022-09-28T00:18:56.251Z,15.00
2022-09-28T00:21:26.996Z,15.00
2022-09-28T00:24:15.376Z,15.00
2022-09-28T00:26:48.709Z,15.10
2022-09-28T00:29:22.300Z,15.20
2022-09-28T00:31:52.991Z,15.30
2022-09-28T00:34:20.766Z,15.30
2022-09-28T00:36:48.649Z,15.30
2022-09-28T00:39:17.579Z,15.30
2022-09-28T00:41:46.359Z,15.30
2022-09-28T00:44:25.944Z,15.30
2022-09-28T00:47:07.144Z,15.00
2022-09-28T00:50:11.320Z,14.80
2022-09-28T00:52:50.455Z,14.90
2022-09-28T00:55:22.061Z,14.80
2022-09-28T00:57:56.122Z,14.90
2022-09-28T01:00:24.052Z,15.00
2022-09-28T01:02:51.604Z,15.00
2022-09-28T01:05:20.787Z,15.00
2022-09-28T01:07:48.665Z,15.00
2022-09-28T01:10:16.289Z,15.10
2022-09-28T01:12:43.793Z,15.10
2022-09-28T01:15:11.873Z,15.20
2022-09-28T01:17:43.160Z,15.20
2022-09-28T01:20:35.249Z,15.20
2022-09-28T01:23:30.257Z,15.30
2022-09-28T01:26:16.048Z,15.20
2022-09-28T01:28:44.974Z,15.20
2022-09-28T01:31:15.227Z,15.00
2022-09-28T01:33:55.752Z,15.00
2022-09-28T01:36:28.335Z,15.00
2022-09-28T01:39:26.427Z,15.00
2022-09-28T01:41:59.350Z,15.10
2022-09-28T01:44:30.245Z,15.00
2022-09-28T01:47:05.235Z,15.10
2022-09-28T01:49:41.933Z,15.00
2022-09-28T01:52:54.637Z,15.00
2022-09-28T01:55:33.381Z,15.00
2022-09-28T01:58:36.446Z,15.00
2022-09-28T02:01:13.299Z,15.00
2022-09-28T02:03:48.987Z,15.00
2022-09-28T02:06:26.592Z,14.90
2022-09-28T02:08:59.434Z,14.90
2022-09-28T02:11:41.677Z,14.50
2022-09-28T02:14:12.549Z,14.60
2022-09-28T02:16:46.338Z,14.70
2022-09-28T02:19:15.323Z,14.80
2022-09-28T02:21:54.818Z,14.80
2022-09-28T02:24:35.398Z,14.90
2022-09-28T02:27:04.493Z,14.80
2022-09-28T02:29:34.482Z,14.90
2022-09-28T02:32:02.190Z,14.70
2022-09-28T02:34:29.587Z,14.40
2022-09-28T02:36:57.033Z,14.50
2022-09-28T02:39:24.811Z,14.70
2022-09-28T02:42:07.032Z,14.70
2022-09-28T02:44:50.698Z,14.80
2022-09-28T02:47:36.899Z,14.90
2022-09-28T02:50:37.470Z,14.90
2022-09-28T02:53:20.991Z,14.80
2022-09-28T02:56:13.063Z,14.90
2022-09-28T02:59:01.953Z,14.80
2022-09-28T03:01:41.132Z,14.70
2022-09-28T03:04:37.479Z,14.80
2022-09-28T03:07:35.566Z,14.80
2022-09-28T03:10:39.011Z,14.60
2022-09-28T03:13:07.765Z,14.60
2022-09-28T03:15:46.460Z,14.50
2022-09-28T03:18:16.609Z,14.40
2022-09-28T03:20:44.157Z,14.40
2022-09-28T03:23:26.628Z,14.60
2022-09-28T03:25:54.679Z,14.70
2022-09-28T03:28:22.259Z,14.80
2022-09-28T03:30:52.826Z,14.80
2022-09-28T03:33:20.902Z,14.80
2022-09-28T03:35:49.723Z,14.70
2022-09-28T03:38:18.967Z,14.70
2022-09-28T03:41:10.721Z,14.80
2022-09-28T03:43:41.082Z,14.80
2022-09-28T03:46:08.805Z,14.90
2022-09-28T03:48:42.324Z,15.00
2022-09-28T03:51:11.798Z,15.00
2022-09-28T03:53:40.304Z,15.00
2022-09-28T03:56:13.617Z,15.00
2022-09-28T03:58:42.098Z,14.90
2022-09-28T04:01:16.755Z,14.90
2022-09-28T04:03:47.407Z,14.90
2022-09-28T04:06:15.675Z,14.90
2022-09-28T04:08:43.583Z,14.90
2022-09-28T04:11:11.915Z,14.90
2022-09-28T04:13:39.541Z,15.00
2022-09-28T04:16:12.045Z,15.10
2022-09-28T04:18:42.677Z,15.20
2022-09-28T04:21:32.607Z,15.10
2022-09-28T04:24:08.327Z,15.10
2022-09-28T04:26:36.857Z,15.20
2022-09-28T04:29:22.507Z,15.20
2022-09-28T04:31:55.460Z,15.10
2022-09-28T04:34:37.875Z,15.10
2022-09-28T04:37:07.204Z,15.20
2022-09-28T04:39:34.510Z,15.20
2022-09-28T04:42:02.032Z,15.20
2022-09-28T04:44:29.997Z,15.10
2022-09-28T04:47:04.978Z,15.10
2022-09-28T04:49:35.523Z,15.20
2022-09-28T04:52:17.858Z,15.20
2022-09-28T04:54:46.033Z,15.20
2022-09-28T04:57:13.830Z,15.20
2022-09-28T04:59:41.771Z,15.20
2022-09-28T05:02:09.321Z,15.20
2022-09-28T05:04:56.835Z,15.00
2022-09-28T05:07:36.961Z,14.90
2022-09-28T05:10:07.437Z,14.90
2022-09-28T05:12:36.255Z,14.90
2022-09-28T05:15:06.045Z,14.90
2022-09-28T05:17:35.427Z,14.90
2022-09-28T05:20:22.903Z,14.90
2022-09-28T05:22:51.638Z,14.90
2022-09-28T05:25:19.888Z,14.90
2022-09-28T05:27:57.260Z,15.00
2022-09-28T05:30:44.723Z,15.00
2022-09-28T05:33:45.015Z,15.10
2022-09-28T05:36:14.023Z,15.20
2022-09-28T05:38:43.225Z,15.20
2022-09-28T05:41:13.579Z,15.20
2022-09-28T05:43:41.275Z,15.00
2022-09-28T05:46:08.688Z,15.00
2022-09-28T05:48:39.026Z,15.10
2022-09-28T05:51:06.850Z,15.20
2022-09-28T05:53:34.196Z,15.20
2022-09-28T05:56:01.829Z,15.20
2022-09-28T05:58:34.902Z,15.20
2022-09-28T06:01:02.806Z,15.10
2022-09-28T06:03:31.308Z,15.10
2022-09-28T06:06:02.640Z,15.20
2022-09-28T06:08:34.068Z,15.30
2022-09-28T06:11:15.620Z,15.40
2022-09-28T06:13:43.011Z,15.40
2022-09-28T06:16:16.888Z,15.50
2022-09-28T06:18:44.814Z,15.50
2022-09-28T06:21:13.796Z,15.50
2022-09-28T06:23:49.010Z,15.50
2022-09-28T06:26:18.382Z,15.30
2022-09-28T06:28:46.299Z,15.20
2022-09-28T06:31:13.876Z,15.30
2022-09-28T06:33:46.181Z,15.30
2022-09-28T06:36:14.108Z,15.20
2022-09-28T06:38:41.434Z,15.30
2022-09-28T06:41:09.840Z,15.40
2022-09-28T06:43:40.065Z,15.50
2022-09-28T06:46:14.412Z,15.60
2022-09-28T06:48:50.863Z,15.60
2022-09-28T06:51:41.071Z,15.50
2022-09-28T06:54:38.918Z,15.60
2022-09-28T06:57:22.225Z,15.60
2022-09-28T06:59:49.613Z,15.60
2022-09-28T07:02:17.267Z,15.50
2022-09-28T07:04:44.879Z,15.60
2022-09-28T07:07:38.908Z,15.70
2022-09-28T07:10:44.747Z,15.90
2022-09-28T07:13:51.640Z,16.00
2022-09-28T07:16:25.689Z,16.10
2022-09-28T07:18:54.757Z,16.10
2022-09-28T07:21:29.228Z,16.10
2022-09-28T07:24:00.898Z,16.10
2022-09-28T07:26:33.380Z,16.10
2022-09-28T07:29:14.226Z,16.00
2022-09-28T07:32:02.018Z,16.00
2022-09-28T07:34:29.757Z,16.00
2022-09-28T07:37:07.286Z,15.90
2022-09-28T07:39:55.924Z,15.80
2022-09-28T07:42:23.716Z,15.80
2022-09-28T07:44:51.907Z,15.80
2022-09-28T07:47:30.773Z,16.00
2022-09-28T07:50:18.605Z,16.10
2022-09-28T07:53:23.718Z,16.20
2022-09-28T07:56:09.867Z,16.50
2022-09-28T07:58:50.978Z,16.60
2022-09-28T08:01:27.506Z,16.60
2022-09-28T08:03:56.438Z,16.40
2022-09-28T08:06:24.300Z,16.60
2022-09-28T08:08:53.018Z,16.70
2022-09-28T08:11:22.277Z,16.80
2022-09-28T08:14:22.032Z,16.70
2022-09-28T08:17:01.367Z,16.70
2022-09-28T08:20:03.179Z,16.70
2022-09-28T08:22:32.445Z,16.60
2022-09-28T08:25:01.277Z,16.60
2022-09-28T08:27:29.922Z,16.60
2022-09-28T08:29:57.260Z,16.40
2022-09-28T08:32:51.044Z,16.40
2022-09-28T08:35:36.892Z,16.40
2022-09-28T08:38:27.820Z,16.40
2022-09-28T08:41:31.744Z,16.70
2022-09-28T08:44:25.911Z,16.90
2022-09-28T08:47:47.825Z,17.20
2022-09-28T08:50:31.984Z,17.20
2022-09-28T08:53:48.469Z,17.20
2022-09-28T08:56:45.282Z,17.20
2022-09-28T08:59:17.557Z,17.20
2022-09-28T09:02:19.197Z,16.90
2022-09-28T09:04:47.826Z,16.80
2022-09-28T09:07:46.763Z,16.80
2022-09-28T09:10:46.090Z,17.00
2022-09-28T09:13:34.643Z,17.10
2022-09-28T09:16:17.826Z,17.20
2022-09-28T09:19:17.497Z,17.50
2022-09-28T09:22:17.041Z,17.80
2022-09-28T09:25:04.163Z,17.50
2022-09-28T09:27:51.008Z,17.40
2022-09-28T09:30:26.263Z,17.40
2022-09-28T09:33:33.661Z,17.40
2022-09-28T09:36:32.938Z,17.50
2022-09-28T09:39:38.227Z,17.50
2022-09-28T09:42:46.218Z,17.50
2022-09-28T09:45:56.416Z,17.30
2022-09-28T09:49:38.976Z,17.20
2022-09-28T09:52:28.139Z,17.20
2022-09-28T09:55:11.506Z,17.20
2022-09-28T09:58:03.401Z,17.40
2022-09-28T10:01:02.191Z,17.50
2022-09-28T10:03:52.400Z,17.50
2022-09-28T10:06:37.368Z,17.60
2022-09-28T10:09:15.056Z,17.50
2022-09-28T10:11:50.389Z,17.50
2022-09-28T10:14:22.927Z,17.60
2022-09-28T10:16:59.053Z,18.00
2022-09-28T10:19:45.137Z,18.20
2022-09-28T10:22:39.887Z,18.40
2022-09-28T10:25:14.008Z,18.20
2022-09-28T10:27:46.231Z,18.10
2022-09-28T10:30:20.719Z,18.00
2022-09-28T10:32:51.609Z,18.00
2022-09-28T10:35:18.918Z,18.20
2022-09-28T10:38:20.771Z,18.10
2022-09-28T10:41:10.574Z,17.80
2022-09-28T10:44:11.485Z,17.60
2022-09-28T10:47:10.081Z,17.80
2022-09-28T10:49:47.360Z,17.90
2022-09-28T10:52:43.283Z,18.00
2022-09-28T10:55:32.897Z,18.30
2022-09-28T10:58:26.844Z,18.20
2022-09-28T11:01:04.224Z,18.10
2022-09-28T11:03:34.439Z,18.00
2022-09-28T11:06:08.475Z,18.20
2022-09-28T11:08:44.562Z,18.60
2022-09-28T11:11:21.709Z,19.20
2022-09-28T11:14:01.591Z,19.70
2022-09-28T11:16:36.585Z,19.70
2022-09-28T11:19:20.863Z,20.10
2022-09-28T11:21:49.503Z,19.90
2022-09-28T11:24:26.226Z,19.50
2022-09-28T11:27:00.469Z,19.40
2022-09-28T11:29:46.277Z,19.50
2022-09-28T11:32:44.625Z,19.80
2022-09-28T11:35:32.440Z,20.10
2022-09-28T11:38:36.469Z,20.10
2022-09-28T11:42:18.164Z,20.30
2022-09-28T11:44:55.810Z,20.50
2022-09-28T11:47:42.195Z,20.60
2022-09-28T11:50:24.331Z,21.10
2022-09-28T11:53:25.655Z,21.60
2022-09-28T11:56:10.109Z,22.10
2022-09-28T11:58:42.853Z,21.90
2022-09-28T12:01:36.275Z,21.90
2022-09-28T12:04:39.303Z,21.50
2022-09-28T12:07:19.207Z,21.30
2022-09-28T12:09:54.300Z,21.10
2022-09-28T12:12:36.473Z,21.10
2022-09-28T12:15:25.632Z,20.80
2022-09-28T12:18:05.477Z,20.50
2022-09-28T12:21:05.081Z,20.00
2022-09-28T12:23:36.149Z,19.90
2022-09-28T12:26:11.238Z,20.30
2022-09-28T12:28:51.918Z,20.80
2022-09-28T12:31:32.273Z,21.30
2022-09-28T12:34:01.334Z,21.70
2022-09-28T12:36:41.800Z,22.00
2022-09-28T12:39:23.999Z,22.60
2022-09-28T12:42:07.347Z,22.80
2022-09-28T12:45:27.331Z,22.90
2022-09-28T12:48:09.135Z,23.10
2022-09-28T12:50:58.156Z,23.30
2022-09-28T12:54:02.256Z,23.40
2022-09-28T12:56:52.390Z,23.30
2022-09-28T12:59:31.373Z,23.50
2022-09-28T13:02:30.065Z,23.60
2022-09-28T13:05:16.387Z,23.10
2022-09-28T13:07:55.917Z,22.60
2022-09-28T13:10:41.104Z,22.50
2022-09-28T13:13:29.653Z,22.50
2022-09-28T13:16:13.086Z,22.30
2022-09-28T13:18:53.441Z,22.30
2022-09-28T13:21:26.481Z,22.50
2022-09-28T13:24:14.339Z,22.60
2022-09-28T13:26:47.853Z,22.80
2022-09-28T13:29:19.532Z,23.00
2022-09-28T13:31:54.740Z,23.00
2022-09-28T13:34:27.015Z,22.70
2022-09-28T13:37:26.679Z,22.60
2022-09-28T13:39:56.753Z,22.20
2022-09-28T13:42:36.611Z,21.90
2022-09-28T13:45:22.876Z,21.70
2022-09-28T13:48:12.484Z,21.70
2022-09-28T13:51:01.463Z,21.70
2022-09-28T13:53:55.535Z,21.90
2022-09-28T13:56:22.973Z,21.90
2022-09-28T13:59:12.492Z,22.00
2022-09-28T14:01:51.774Z,22.10
2022-09-28T14:04:24.191Z,22.20
2022-09-28T14:06:57.668Z,22.40
2022-09-28T14:09:45.862Z,22.50
2022-09-28T14:12:51.615Z,22.70
2022-09-28T14:15:40.498Z,22.70
2022-09-28T14:18:15.328Z,22.50
2022-09-28T14:21:03.106Z,22.50
2022-09-28T14:24:03.533Z,22.30
2022-09-28T14:27:00.467Z,22.10
2022-09-28T14:29:30.814Z,21.90
2022-09-28T14:32:09.194Z,21.90
2022-09-28T14:34:39.568Z,21.90
2022-09-28T14:37:45.925Z,21.70
2022-09-28T14:41:11.434Z,21.50
2022-09-28T14:43:44.564Z,21.60
2022-09-28T14:46:21.456Z,21.50
2022-09-28T14:49:17.569Z,21.50
2022-09-28T14:51:47.920Z,21.10
2022-09-28T14:54:18.185Z,21.00
2022-09-28T14:56:57.177Z,21.00
2022-09-28T14:59:30.515Z,20.90
2022-09-28T15:02:01.442Z,20.70
2022-09-28T15:04:32.305Z,20.50
2022-09-28T15:07:00.186Z,20.50
2022-09-28T15:09:36.058Z,20.20
2022-09-28T15:12:06.040Z,20.10
2022-09-28T15:14:41.798Z,20.10
2022-09-28T15:17:15.019Z,20.10
2022-09-28T15:20:20.559Z,20.10
2022-09-28T15:22:50.106Z,20.10
2022-09-28T15:25:21.008Z,20.10
2022-09-28T15:27:54.903Z,20.00
2022-09-28T15:30:25.632Z,20.00
2022-09-28T15:32:57.148Z,20.00
2022-09-28T15:35:27.059Z,20.00
2022-09-28T15:37:55.746Z,20.00
2022-09-28T15:40:35.109Z,20.10
2022-09-28T15:43:10.534Z,20.20
2022-09-28T15:45:51.283Z,20.50
2022-09-28T15:48:56.806Z,20.70
2022-09-28T15:51:25.544Z,20.70
2022-09-28T15:54:03.210Z,20.60
2022-09-28T15:56:31.422Z,20.50
2022-09-28T15:59:14.356Z,20.30
2022-09-28T16:01:44.284Z,20.00
2022-09-28T16:04:38.752Z,20.00
2022-09-28T16:07:28.130Z,19.90
2022-09-28T16:10:12.712Z,19.80
2022-09-28T16:12:58.360Z,19.70
2022-09-28T16:15:41.068Z,19.70
2022-09-28T16:18:20.839Z,19.70
2022-09-28T16:20:53.648Z,19.70
2022-09-28T16:23:29.588Z,19.70
2022-09-28T16:26:03.564Z,19.70
2022-09-28T16:28:35.311Z,19.70
2022-09-28T16:31:09.373Z,19.50
2022-09-28T16:33:54.912Z,19.40
2022-09-28T16:36:23.461Z,19.30
2022-09-28T16:38:53.138Z,19.10
2022-09-28T16:41:25.006Z,19.10
2022-09-28T16:44:01.414Z,19.00
2022-09-28T16:46:36.485Z,18.90
2022-09-28T16:49:06.493Z,18.80
2022-09-28T16:51:34.891Z,18.80
2022-09-28T16:54:39.475Z,18.70
2022-09-28T16:57:11.496Z,18.60
2022-09-28T16:59:39.173Z,18.50
2022-09-28T17:02:45.129Z,18.50
2022-09-28T17:05:08.595Z,18.70
2022-09-28T17:07:36.020Z,18.80
2022-09-28T17:10:05.075Z,18.70
2022-09-28T17:12:34.431Z,18.70
2022-09-28T17:15:01.946Z,18.70
2022-09-28T17:17:31.835Z,18.70
2022-09-28T17:19:59.557Z,18.60
2022-09-28T17:22:27.175Z,18.30
2022-09-28T17:24:54.883Z,18.30
2022-09-28T17:27:22.505Z,18.40
2022-09-28T17:29:52.359Z,18.30
2022-09-28T17:32:22.041Z,18.30
2022-09-28T17:35:00.718Z,18.30
2022-09-28T17:37:41.035Z,18.30
2022-09-28T17:40:23.854Z,18.30
2022-09-28T17:42:55.527Z,18.20
2022-09-28T17:45:28.761Z,18.20
2022-09-28T17:47:57.931Z,18.20
2022-09-28T17:50:34.473Z,18.30
2022-09-28T17:53:08.954Z,18.20
2022-09-28T17:55:41.094Z,18.10
2022-09-28T17:58:18.372Z,18.10
2022-09-28T18:00:53.267Z,18.30
2022-09-28T18:03:26.857Z,18.40
2022-09-28T18:06:12.727Z,18.40
2022-09-28T18:08:44.581Z,18.40
2022-09-28T18:11:14.910Z,18.40
2022-09-28T18:13:47.692Z,18.30
2022-09-28T18:16:18.455Z,18.20
2022-09-28T18:18:53.291Z,18.20
2022-09-28T18:21:24.072Z,18.30
2022-09-28T18:23:54.944Z,18.30
2022-09-28T18:26:24.413Z,18.20
2022-09-28T18:28:55.251Z,18.20
2022-09-28T18:31:24.330Z,18.10
2022-09-28T18:33:59.109Z,18.00
2022-09-28T18:36:30.663Z,17.80
2022-09-28T18:39:01.902Z,17.70
2022-09-28T18:41:30.564Z,17.60
2022-09-28T18:44:05.164Z,17.60
2022-09-28T18:46:37.034Z,17.60
2022-09-28T18:49:06.972Z,17.70
2022-09-28T18:51:36.215Z,17.60
2022-09-28T18:54:08.066Z,17.60
2022-09-28T18:56:38.170Z,17.50
2022-09-28T18:59:11.921Z,17.30
2022-09-28T19:01:41.740Z,17.40
2022-09-28T19:04:11.977Z,17.40
2022-09-28T19:06:42.587Z,17.40
2022-09-28T19:09:12.397Z,17.50
2022-09-28T19:11:40.889Z,17.50
2022-09-28T19:14:13.038Z,17.60
2022-09-28T19:16:42.183Z,17.60
2022-09-28T19:19:13.376Z,17.40
2022-09-28T19:21:45.867Z,17.30
2022-09-28T19:24:36.279Z,17.20
2022-09-28T19:27:45.404Z,17.20
2022-09-28T19:30:22.707Z,17.20
2022-09-28T19:32:56.267Z,17.20
2022-09-28T19:35:26.457Z,17.50
2022-09-28T19:37:55.733Z,17.80
2022-09-28T19:40:25.303Z,17.90
2022-09-28T19:43:30.026Z,18.00
2022-09-28T19:49:51.259Z,17.50
2022-09-28T19:55:56.203Z,17.40
2022-09-28T19:58:36.687Z,17.40
2022-09-28T20:01:10.181Z,17.20
2022-09-28T20:03:39.761Z,17.20
2022-09-28T20:06:13.822Z,17.20
2022-09-28T20:08:48.221Z,17.10
2022-09-28T20:11:18.325Z,17.00
2022-09-28T20:13:45.756Z,17.00
2022-09-28T20:16:17.998Z,17.00
2022-09-28T20:18:52.426Z,16.90
2022-09-28T20:21:26.523Z,16.70
2022-09-28T20:23:54.378Z,16.70
2022-09-28T20:26:22.338Z,16.80
2022-09-28T20:28:50.459Z,16.80
2022-09-28T20:31:25.497Z,16.80
2022-09-28T20:33:55.118Z,16.90
2022-09-28T20:36:25.812Z,16.90
2022-09-28T20:38:57.227Z,17.00
2022-09-28T20:41:25.898Z,16.80
2022-09-28T20:43:56.232Z,16.60
2022-09-28T20:46:26.859Z,16.70
2022-09-28T20:48:55.958Z,16.80
2022-09-28T20:51:26.392Z,16.80
2022-09-28T20:53:58.192Z,16.90
2022-09-28T20:56:36.571Z,16.80
2022-09-28T20:59:08.661Z,16.60
2022-09-28T21:01:39.727Z,16.60
2022-09-28T21:04:11.151Z,16.60
2022-09-28T21:06:43.585Z,16.50
2022-09-28T21:09:14.456Z,16.60
2022-09-28T21:11:44.354Z,16.70
2022-09-28T21:14:12.910Z,16.70
2022-09-28T21:16:42.538Z,16.60
2022-09-28T21:19:10.632Z,16.40
2022-09-28T21:21:40.989Z,16.50
2022-09-28T21:24:09.395Z,16.40
2022-09-28T21:26:39.060Z,16.40
2022-09-28T21:29:10.478Z,16.30
2022-09-28T21:31:48.241Z,16.30
2022-09-28T21:34:19.699Z,16.40
2022-09-28T21:36:51.580Z,16.40
2022-09-28T21:39:20.443Z,16.40
2022-09-28T21:41:49.672Z,16.40
2022-09-28T21:44:17.414Z,16.40
2022-09-28T21:46:45.713Z,16.50
2022-09-28T21:49:15.650Z,16.50
2022-09-28T21:51:43.062Z,16.50
2022-09-28T21:54:12.222Z,16.50
2022-09-28T21:56:40.300Z,16.60
2022-09-28T21:59:08.059Z,16.60
2022-09-28T22:01:35.949Z,16.60
2022-09-28T22:04:03.496Z,16.40
2022-09-28T22:06:30.894Z,16.30
2022-09-28T22:08:58.509Z,16.30
2022-09-28T22:11:28.394Z,16.40
2022-09-28T22:13:59.853Z,16.30
2022-09-28T22:16:30.494Z,16.40
2022-09-28T22:18:58.819Z,16.40
2022-09-28T22:21:29.458Z,16.40
2022-09-28T22:24:03.595Z,16.40
2022-09-28T22:26:32.287Z,16.40
2022-09-28T22:29:02.085Z,16.40
2022-09-28T22:31:32.481Z,16.30
2022-09-28T22:34:09.972Z,16.20
2022-09-28T22:36:37.501Z,16.30
2022-09-28T22:39:05.437Z,16.40
2022-09-28T22:41:33.263Z,16.40
2022-09-28T22:44:00.929Z,16.40
2022-09-28T22:46:31.249Z,16.40
2022-09-28T22:49:00.111Z,16.10
2022-09-28T22:51:28.972Z,16.00
2022-09-28T22:53:59.181Z,16.10
2022-09-28T22:56:26.731Z,16.10
2022-09-28T22:58:54.245Z,16.10
2022-09-28T23:01:24.549Z,16.20
2022-09-28T23:03:53.329Z,16.00
2022-09-28T23:06:23.391Z,15.80
2022-09-28T23:08:51.551Z,15.80
2022-09-28T23:11:19.356Z,15.80
2022-09-28T23:13:50.809Z,15.90
2022-09-28T23:16:19.015Z,16.00
2022-09-28T23:18:46.322Z,16.00
2022-09-28T23:21:15.804Z,16.00
2022-09-28T23:23:43.811Z,15.90
2022-09-28T23:26:16.143Z,15.80
2022-09-28T23:28:43.873Z,15.60
2022-09-28T23:31:17.515Z,15.50
2022-09-28T23:33:45.205Z,15.50
2022-09-28T23:36:13.299Z,15.60
2022-09-28T23:38:41.423Z,15.60
2022-09-28T23:41:10.006Z,15.60
2022-09-28T23:43:38.472Z,15.70
2022-09-28T23:46:07.620Z,15.60
2022-09-28T23:48:35.374Z,15.50
2022-09-28T23:51:03.821Z,15.40
2022-09-28T23:53:32.478Z,15.40
2022-09-28T23:55:59.892Z,15.50
2022-09-28T23:58:27.701Z,15.60
